Green Bay, WI (54304)

4:00 AM CDT on September 26, 2016 (GMT -0500)
Southern Ashwaubenon | | Change Station

Elev 643 ft 44.48 °N, 88.09 °W | Updated 22 seconds ago

Clear
Clear
55.9 °F
Feels Like 55.9 °F
N
3.0
Wind Variable Wind from WNW

Today
High -- | Low -- °F
--% Chance of Precip.
Yesterday
High -- | Low -- °F
Precip. -- in
Pressure 29.83 in
Visibility 10.0 miles
Clouds Clear
Dew Point 50 °F
Humidity 83%
Rainfall 0.00 in
Snow Depth Not available.
6:44 AM 6:41 PM
Waning Crescent, 20% visible
METAR KGRB 260853Z AUTO 23007KT 10SM CLR 13/09 A2984 RMK AO2 SLP102 T01330094 58001
Pressure 29.83 in
Visibility 10.0 miles
Clouds Clear
Dew Point 50 °F
Humidity 83%
Rainfall 0.00 in
Snow Depth Not available.
6:44 AM 6:41 PM
Waning Crescent, 20% visible
METAR KGRB 260853Z AUTO 23007KT 10SM CLR 13/09 A2984 RMK AO2 SLP102 T01330094 58001

10-Day Weather Forecast

Almanac

Astronomy

Sep. 26, 2016 Rise Set
Actual Time
Civil Twilight
Nautical Twilight
Astronomical Twilight
Moon
Length of Visible Light
Length of Day
Tomorrow will be .
, % of the Moon is Illuminated

Today's Extremes

State Highs State Lows

Community

WunderPhotos

Upload Photos

1,941,853 photos uploaded!

WunderBlog® & News

Nearby

Air Quality

  Air Quality AQ Index Pollutant
Not available.

Snow Depth

Station Depth Elevation

Earthquake Activity

City Distance Mag. Time & Date
Minimum magnitude displayed is 2.5.

Coastal Water Temperatures

Place Temperature

Stations

Nearby Weather Stations

Station Location Temp. Windchill Dew Point Humidity Wind Precip. Elev Updated Type
                   

Watches & Warnings

There are currently no watches in effect.